Time;durP1;ratioP1;P1;durP2;ratioP2;P2;SDS_P1;SDS_P2;PMS_P1;PMS_P2;Temp;Humidity;BMP_temperature;BMP_pressure;BME280_temperature;BME280_humidity;BME280_pressure;Samples;Min_cycle;Max_cycle;Signal;HPM_P1;HPM_P2
2023/04/19 00:01:38;;;;;;;51.20;32.03;;;;;;;;;;7685098;23;20052;-74
2023/04/19 00:04:38;;;;;;;52.57;34.63;;;;;;;;;;7710990;23;20004;-74
2023/04/19 00:07:39;;;;;;;53.53;30.77;;;;;;;;;;7685734;23;20143;-74
2023/04/19 00:10:39;;;;;;;51.87;31.43;;;;;;;;;;7711474;23;20000;-74
2023/04/19 00:13:39;;;;;;;46.47;29.13;;;;;;;;;;7712547;23;20094;-75
2023/04/19 00:16:40;;;;;;;49.50;27.50;;;;;;;;;;7711674;23;20009;-74
2023/04/19 00:19:40;;;;;;;52.67;31.07;;;;;;;;;;7712245;23;19997;-75
2023/04/19 00:22:41;;;;;;;49.17;28.53;;;;;;;;;;7711015;23;19997;-75
2023/04/19 00:25:41;;;;;;;55.10;31.67;;;;;;;;;;7711222;23;20024;-74
2023/04/19 00:28:41;;;;;;;54.50;29.80;;;;;;;;;;7712384;23;20072;-75
2023/04/19 00:31:41;;;;;;;53.78;29.05;;;;;;;;;;7711170;23;19988;-74
2023/04/19 00:34:42;;;;;;;50.37;29.60;;;;;;;;;;7727241;23;20369;-89
2023/04/19 00:37:42;;;;;;;56.37;30.63;;;;;;;;;;7734812;23;20001;-88
2023/04/19 00:40:42;;;;;;;57.30;31.92;;;;;;;;;;7734855;23;20000;-89
2023/04/19 00:43:42;;;;;;;52.13;29.73;;;;;;;;;;7723145;23;20417;-74
2023/04/19 00:46:44;;;;;;;51.20;30.40;;;;;;;;;;7711031;23;20413;-75
2023/04/19 00:49:44;;;;;;;51.10;29.52;;;;;;;;;;7711825;23;20000;-75
2023/04/19 00:52:45;;;;;;;52.23;31.07;;;;;;;;;;7711394;23;20451;-75
2023/04/19 00:55:46;;;;;;;41.23;27.20;;;;;;;;;;7711295;23;19997;-74
2023/04/19 00:58:47;;;;;;;46.63;28.97;;;;;;;;;;7711852;23;20000;-74
2023/04/19 01:01:47;;;;;;;40.63;25.10;;;;;;;;;;7711324;23;20020;-75
2023/04/19 01:04:48;;;;;;;41.80;24.90;;;;;;;;;;7707125;23;19992;-82
2023/04/19 01:07:48;;;;;;;41.23;25.53;;;;;;;;;;7731498;23;20307;-74
2023/04/19 01:10:48;;;;;;;42.97;25.40;;;;;;;;;;7707439;23;20055;-75
2023/04/19 01:13:48;;;;;;;40.67;25.07;;;;;;;;;;7683688;23;20023;-75
2023/04/19 01:16:49;;;;;;;40.03;23.90;;;;;;;;;;7710834;23;20444;-74
2023/04/19 01:19:57;;;;;;;47.40;26.53;;;;;;;;;;7710638;23;20003;-75
2023/04/19 01:22:57;;;;;;;44.78;24.10;;;;;;;;;;7710822;23;20414;-75
2023/04/19 01:25:57;;;;;;;40.70;23.45;;;;;;;;;;7711447;23;20047;-75
2023/04/19 01:28:57;;;;;;;37.38;21.88;;;;;;;;;;7711574;23;20394;-75
2023/04/19 01:31:58;;;;;;;36.40;23.27;;;;;;;;;;7711124;23;19996;-74
2023/04/19 01:34:58;;;;;;;38.80;24.20;;;;;;;;;;7711832;23;19993;-74
2023/04/19 01:37:58;;;;;;;37.95;22.50;;;;;;;;;;7710133;23;20077;-74
2023/04/19 01:40:58;;;;;;;41.57;23.80;;;;;;;;;;7711324;23;20000;-75
2023/04/19 01:43:59;;;;;;;38.47;22.37;;;;;;;;;;7710383;23;20000;-74
2023/04/19 01:46:59;;;;;;;42.10;22.83;;;;;;;;;;7711628;23;20027;-74
2023/04/19 01:50:01;;;;;;;35.00;22.23;;;;;;;;;;7710902;23;20370;-74
2023/04/19 01:53:01;;;;;;;36.15;20.92;;;;;;;;;;7711837;23;20003;-74
2023/04/19 01:56:01;;;;;;;36.57;22.37;;;;;;;;;;7710784;23;19997;-74
2023/04/19 01:59:02;;;;;;;38.63;20.57;;;;;;;;;;7684050;23;20088;-74
2023/04/19 02:02:05;;;;;;;32.27;20.63;;;;;;;;;;7710559;23;20012;-74
2023/04/19 02:05:06;;;;;;;36.85;22.27;;;;;;;;;;7711305;23;19997;-74
2023/04/19 02:08:06;;;;;;;37.30;21.50;;;;;;;;;;7710979;23;20071;-75
2023/04/19 02:11:07;;;;;;;40.58;22.40;;;;;;;;;;7684159;23;20012;-74
2023/04/19 02:14:08;;;;;;;37.38;23.73;;;;;;;;;;7726375;23;19997;-83
2023/04/19 02:17:09;;;;;;;35.30;21.37;;;;;;;;;;7735634;23;19991;-85
2023/04/19 02:20:09;;;;;;;31.33;20.47;;;;;;;;;;7732348;23;20000;-87
2023/04/19 02:23:09;;;;;;;40.77;22.07;;;;;;;;;;7728822;23;20000;-84
2023/04/19 02:26:10;;;;;;;37.22;20.10;;;;;;;;;;7734127;23;19996;-83
2023/04/19 02:29:10;;;;;;;36.37;22.13;;;;;;;;;;7731880;23;20024;-86
2023/04/19 02:32:11;;;;;;;32.27;19.57;;;;;;;;;;7702727;23;20000;-86
2023/04/19 02:35:11;;;;;;;35.97;19.93;;;;;;;;;;7728820;23;19996;-82
2023/04/19 02:38:11;;;;;;;28.80;17.67;;;;;;;;;;7730217;23;19992;-83
2023/04/19 02:41:11;;;;;;;31.83;19.53;;;;;;;;;;7708133;23;20009;-82
2023/04/19 02:44:12;;;;;;;36.23;19.53;;;;;;;;;;7726967;23;20004;-83
2023/04/19 02:47:12;;;;;;;30.70;18.03;;;;;;;;;;7729350;23;20050;-81
2023/04/19 02:50:14;;;;;;;30.88;17.75;;;;;;;;;;7698171;23;20016;-83
2023/04/19 02:53:14;;;;;;;31.80;19.65;;;;;;;;;;7724061;23;20396;-83
2023/04/19 02:56:15;;;;;;;35.92;19.40;;;;;;;;;;7718623;23;20040;-84
2023/04/19 02:59:16;;;;;;;26.67;16.63;;;;;;;;;;7698649;23;20015;-85
2023/04/19 03:02:16;;;;;;;25.55;17.38;;;;;;;;;;7731337;23;20008;-83
2023/04/19 03:05:17;;;;;;;29.90;16.97;;;;;;;;;;7731687;23;20005;-82
2023/04/19 03:08:17;;;;;;;27.97;17.43;;;;;;;;;;7732625;23;20003;-84
2023/04/19 03:11:17;;;;;;;28.00;16.60;;;;;;;;;;7716030;23;20013;-82
2023/04/19 03:14:17;;;;;;;29.30;16.37;;;;;;;;;;7731974;23;20027;-86
2023/04/19 03:17:18;;;;;;;30.43;18.40;;;;;;;;;;7721792;23;20042;-87
2023/04/19 03:20:19;;;;;;;34.10;18.10;;;;;;;;;;7699119;23;20027;-86
2023/04/19 03:23:20;;;;;;;28.13;16.83;;;;;;;;;;7693889;23;20003;-74
2023/04/19 03:26:20;;;;;;;30.23;18.37;;;;;;;;;;7712868;23;19993;-74
2023/04/19 03:29:20;;;;;;;28.47;18.37;;;;;;;;;;7712894;23;20000;-74
2023/04/19 03:32:20;;;;;;;33.70;20.80;;;;;;;;;;7712924;23;20377;-74
2023/04/19 03:35:24;;;;;;;30.83;18.83;;;;;;;;;;7713337;23;20034;-74
2023/04/19 03:38:24;;;;;;;35.08;19.33;;;;;;;;;;7712724;23;19996;-74
2023/04/19 03:41:25;;;;;;;33.93;21.13;;;;;;;;;;7712236;23;20012;-74
2023/04/19 03:44:26;;;;;;;35.23;20.53;;;;;;;;;;7712376;23;19989;-74
2023/04/19 03:47:26;;;;;;;37.73;20.73;;;;;;;;;;7712603;23;20004;-74
2023/04/19 03:50:26;;;;;;;32.03;20.60;;;;;;;;;;7712537;23;20016;-74
2023/04/19 03:53:26;;;;;;;34.58;19.60;;;;;;;;;;7712651;23;20027;-74
2023/04/19 03:56:27;;;;;;;36.67;23.17;;;;;;;;;;7712730;23;20491;-74
2023/04/19 03:59:27;;;;;;;33.93;22.27;;;;;;;;;;7713016;23;20008;-74
2023/04/19 04:02:27;;;;;;;35.47;21.83;;;;;;;;;;7712289;23;20024;-75
2023/04/19 04:05:28;;;;;;;33.87;19.97;;;;;;;;;;7713109;23;20000;-75
2023/04/19 04:08:29;;;;;;;34.60;21.47;;;;;;;;;;7711935;23;20376;-74
2023/04/19 04:11:29;;;;;;;37.22;20.80;;;;;;;;;;7712300;23;20004;-75
2023/04/19 04:14:30;;;;;;;33.10;19.93;;;;;;;;;;7710648;23;19992;-75
2023/04/19 04:17:30;;;;;;;32.03;20.33;;;;;;;;;;7711811;23;20000;-75
2023/04/19 04:20:30;;;;;;;31.20;19.07;;;;;;;;;;7711767;23;19992;-75
2023/04/19 04:23:32;;;;;;;26.83;17.60;;;;;;;;;;7713030;23;20004;-75
2023/04/19 04:26:34;;;;;;;30.10;18.20;;;;;;;;;;7712078;23;19997;-73
2023/04/19 04:29:37;;;;;;;34.40;20.30;;;;;;;;;;7711720;23;20333;-73
2023/04/19 04:32:39;;;;;;;29.65;18.60;;;;;;;;;;7711691;23;20011;-74
2023/04/19 04:35:40;;;;;;;28.55;16.98;;;;;;;;;;7711897;23;20023;-74
2023/04/19 04:38:41;;;;;;;28.80;14.50;;;;;;;;;;7711760;23;20050;-74
2023/04/19 04:41:42;;;;;;;22.52;13.55;;;;;;;;;;7711938;23;20043;-74
2023/04/19 04:44:43;;;;;;;24.77;12.43;;;;;;;;;;7711452;23;20007;-74
2023/04/19 04:47:45;;;;;;;23.77;16.05;;;;;;;;;;7711732;23;19995;-74
2023/04/19 04:50:45;;;;;;;22.65;13.75;;;;;;;;;;7710961;23;20369;-74
2023/04/19 04:53:46;;;;;;;20.63;13.33;;;;;;;;;;7711210;23;20063;-75
2023/04/19 04:56:47;;;;;;;20.13;12.23;;;;;;;;;;7711093;23;20012;-74
2023/04/19 04:59:47;;;;;;;22.43;12.93;;;;;;;;;;7712398;23;20409;-75
2023/04/19 05:02:47;;;;;;;21.83;11.60;;;;;;;;;;7711146;23;20016;-74
2023/04/19 05:05:47;;;;;;;23.97;14.20;;;;;;;;;;7711260;23;20333;-75
2023/04/19 05:08:48;;;;;;;22.30;13.33;;;;;;;;;;7711125;23;20007;-74
2023/04/19 05:11:48;;;;;;;21.43;14.27;;;;;;;;;;7711062;23;20437;-74
2023/04/19 05:14:48;;;;;;;23.23;15.00;;;;;;;;;;7711701;23;20439;-74
2023/04/19 05:17:48;;;;;;;24.30;15.27;;;;;;;;;;7710825;23;19997;-75
2023/04/19 05:20:50;;;;;;;28.70;17.90;;;;;;;;;;7711382;23;20418;-74
2023/04/19 05:23:52;;;;;;;26.75;15.68;;;;;;;;;;7710959;23;19993;-75
2023/04/19 05:26:52;;;;;;;27.08;16.10;;;;;;;;;;7708328;23;20015;-75
2023/04/19 05:29:52;;;;;;;25.10;14.90;;;;;;;;;;7710452;23;20008;-74
2023/04/19 05:32:53;;;;;;;28.20;16.43;;;;;;;;;;7710501;23;20257;-75
2023/04/19 05:35:53;;;;;;;25.53;15.87;;;;;;;;;;7710823;23;19992;-74
2023/04/19 05:38:54;;;;;;;27.70;16.63;;;;;;;;;;7710972;23;19996;-74
2023/04/19 05:41:55;;;;;;;21.73;13.52;;;;;;;;;;7711333;23;20054;-74
2023/04/19 05:44:55;;;;;;;18.77;12.60;;;;;;;;;;7709357;23;20008;-74
2023/04/19 05:47:56;;;;;;;16.73;9.85;;;;;;;;;;7710385;23;20321;-74
2023/04/19 05:50:58;;;;;;;13.82;8.02;;;;;;;;;;7684474;23;20431;-75
2023/04/19 05:54:01;;;;;;;22.00;11.00;;;;;;;;;;7712655;23;20004;-75
2023/04/19 05:57:02;;;;;;;26.40;11.75;;;;;;;;;;7709567;23;20076;-74
2023/04/19 06:00:03;;;;;;;22.50;10.50;;;;;;;;;;7708600;23;20420;-74
2023/04/19 06:03:06;;;;;;;19.95;9.65;;;;;;;;;;7683243;23;20074;-74
2023/04/19 06:06:06;;;;;;;21.02;9.85;;;;;;;;;;7710125;23;20496;-74
2023/04/19 06:09:06;;;;;;;18.20;8.87;;;;;;;;;;7683381;23;20001;-74
2023/04/19 06:12:08;;;;;;;16.03;7.30;;;;;;;;;;7709792;23;20436;-74
2023/04/19 06:15:09;;;;;;;19.33;8.88;;;;;;;;;;7710540;23;20429;-73
2023/04/19 06:18:09;;;;;;;23.30;11.07;;;;;;;;;;7710234;23;20000;-74
2023/04/19 06:21:10;;;;;;;27.00;11.73;;;;;;;;;;7710803;23;19992;-74
2023/04/19 06:24:10;;;;;;;19.15;9.38;;;;;;;;;;7710081;23;19997;-74
2023/04/19 06:27:10;;;;;;;19.53;7.50;;;;;;;;;;7710646;23;20046;-73
2023/04/19 06:30:11;;;;;;;13.57;6.60;;;;;;;;;;7682966;23;20019;-73
2023/04/19 06:33:11;;;;;;;8.13;4.37;;;;;;;;;;7710386;23;20464;-73
2023/04/19 06:36:11;;;;;;;21.52;9.15;;;;;;;;;;7710690;23;19992;-73
2023/04/19 06:39:12;;;;;;;10.27;4.90;;;;;;;;;;7710220;23;20072;-73
2023/04/19 06:42:12;;;;;;;4.30;2.93;;;;;;;;;;7683761;23;20005;-73
2023/04/19 06:45:13;;;;;;;15.87;6.90;;;;;;;;;;7710369;23;20376;-73
2023/04/19 06:48:14;;;;;;;9.52;5.13;;;;;;;;;;7710395;23;20103;-73
2023/04/19 06:51:14;;;;;;;27.83;10.77;;;;;;;;;;7682956;23;20005;-73
2023/04/19 06:54:14;;;;;;;18.57;8.60;;;;;;;;;;7711161;23;19989;-81
2023/04/19 06:57:15;;;;;;;10.07;5.10;;;;;;;;;;7710834;23;20003;-81
2023/04/19 07:00:15;;;;;;;10.53;4.70;;;;;;;;;;7710501;23;20012;-80
2023/04/19 07:03:15;;;;;;;7.83;3.63;;;;;;;;;;7684097;23;20088;-73
2023/04/19 07:06:16;;;;;;;6.77;3.90;;;;;;;;;;7710446;23;19996;-74
2023/04/19 07:09:16;;;;;;;10.80;5.45;;;;;;;;;;7685222;23;20012;-73
2023/04/19 07:12:16;;;;;;;14.27;6.23;;;;;;;;;;7712372;23;20080;-73
2023/04/19 07:15:16;;;;;;;33.43;15.20;;;;;;;;;;7712486;23;20032;-74
2023/04/19 07:18:16;;;;;;;30.15;13.02;;;;;;;;;;7712674;23;20016;-74
2023/04/19 07:21:17;;;;;;;55.90;20.33;;;;;;;;;;7712944;23;20000;-73
2023/04/19 07:24:17;;;;;;;32.70;14.17;;;;;;;;;;7711303;23;19993;-73
2023/04/19 07:27:17;;;;;;;30.35;13.05;;;;;;;;;;7711673;23;19997;-74
2023/04/19 07:30:17;;;;;;;41.23;17.20;;;;;;;;;;7712666;23;20433;-74
2023/04/19 07:33:17;;;;;;;39.87;18.60;;;;;;;;;;7712569;23;19993;-74
2023/04/19 07:36:18;;;;;;;40.10;16.42;;;;;;;;;;7711706;23;20042;-74
2023/04/19 07:39:20;;;;;;;56.10;24.47;;;;;;;;;;7712631;23;20347;-74
2023/04/19 07:42:20;;;;;;;44.45;19.55;;;;;;;;;;7710613;23;20001;-74
2023/04/19 07:45:20;;;;;;;22.53;10.40;;;;;;;;;;7712380;23;20377;-73
2023/04/19 07:48:20;;;;;;;16.33;7.65;;;;;;;;;;7712274;23;20091;-73
2023/04/19 07:51:22;;;;;;;9.83;5.50;;;;;;;;;;7711976;23;20058;-73
2023/04/19 07:54:23;;;;;;;8.57;4.43;;;;;;;;;;7712144;23;20324;-73
2023/04/19 07:57:23;;;;;;;9.07;4.27;;;;;;;;;;7712025;23;19993;-73
2023/04/19 08:00:23;;;;;;;9.43;5.10;;;;;;;;;;7711578;23;20000;-74
2023/04/19 08:03:24;;;;;;;12.90;6.50;;;;;;;;;;7711665;23;20334;-74
2023/04/19 08:06:25;;;;;;;16.73;8.77;;;;;;;;;;7711751;23;20006;-74
2023/04/19 08:09:26;;;;;;;30.48;13.80;;;;;;;;;;7712012;23;20008;-74
2023/04/19 08:12:26;;;;;;;40.20;17.00;;;;;;;;;;7685220;23;20380;-74
2023/04/19 08:15:26;;;;;;;49.20;20.33;;;;;;;;;;7711822;23;20337;-73
2023/04/19 08:18:27;;;;;;;64.43;23.00;;;;;;;;;;7684817;23;19996;-73
2023/04/19 08:21:28;;;;;;;40.00;18.52;;;;;;;;;;7711489;23;19999;-73
2023/04/19 08:24:30;;;;;;;20.50;11.00;;;;;;;;;;7711807;23;20413;-73
2023/04/19 08:27:30;;;;;;;;;;;;;;;;;;7712691;23;20043;-73
2023/04/19 08:30:30;;;;;;;11.02;6.05;;;;;;;;;;7710718;23;19990;-73
2023/04/19 08:33:30;;;;;;;9.87;4.90;;;;;;;;;;7684778;23;20458;-74
2023/04/19 08:36:30;;;;;;;10.93;5.47;;;;;;;;;;7710869;23;19996;-74
2023/04/19 08:39:31;;;;;;;13.10;6.47;;;;;;;;;;7711410;23;20360;-73
2023/04/19 08:42:34;;;;;;;10.10;5.53;;;;;;;;;;7711033;23;20031;-74
2023/04/19 08:45:34;;;;;;;13.43;6.25;;;;;;;;;;7712273;23;20364;-74
2023/04/19 08:48:35;;;;;;;10.67;5.17;;;;;;;;;;7711547;23;20378;-74
2023/04/19 08:51:37;;;;;;;9.53;4.77;;;;;;;;;;7711967;23;19992;-74
2023/04/19 08:54:37;;;;;;;12.02;5.97;;;;;;;;;;7684447;23;20303;-74
2023/04/19 08:57:37;;;;;;;11.10;5.77;;;;;;;;;;7712089;23;19995;-73
2023/04/19 09:00:38;;;;;;;10.33;5.47;;;;;;;;;;7711084;23;19996;-73
2023/04/19 09:03:43;;;;;;;9.57;4.37;;;;;;;;;;7685110;23;20031;-73
2023/04/19 09:06:43;;;;;;;10.32;5.28;;;;;;;;;;7710945;23;19996;-73
2023/04/19 09:09:43;;;;;;;10.50;5.10;;;;;;;;;;7711643;23;20043;-73
2023/04/19 09:12:59;;;;;;;12.87;6.40;;;;;;;;;;7710951;23;19992;-74
2023/04/19 09:15:59;;;;;;;12.13;5.50;;;;;;;;;;7711139;23;19988;-73
2023/04/19 09:19:00;;;;;;;10.50;6.33;;;;;;;;;;7711515;23;20007;-73
2023/04/19 09:22:11;;;;;;;12.10;6.83;;;;;;;;;;7711259;23;20008;-74
2023/04/19 09:25:22;;;;;;;11.52;5.65;;;;;;;;;;7719067;23;20431;-80
2023/04/19 09:28:23;;;;;;;17.15;9.35;;;;;;;;;;7719348;23;20426;-82
2023/04/19 09:31:24;;;;;;;14.50;9.60;;;;;;;;;;7710353;23;20332;-82
2023/04/19 09:34:29;;;;;;;22.00;11.77;;;;;;;;;;7714943;23;20329;-82
2023/04/19 09:37:29;;;;;;;14.80;11.55;;;;;;;;;;7730089;23;19993;-81
2023/04/19 09:40:29;;;;;;;11.15;5.57;;;;;;;;;;7729323;23;20107;-81
2023/04/19 09:43:29;;;;;;;21.02;8.15;;;;;;;;;;7719444;23;20090;-83
2023/04/19 09:46:33;;;;;;;14.57;8.07;;;;;;;;;;7684518;23;20078;-82
2023/04/19 09:49:33;;;;;;;20.33;7.85;;;;;;;;;;7711069;23;20356;-82
2023/04/19 09:52:34;;;;;;;41.73;20.97;;;;;;;;;;7711112;23;19989;-82
2023/04/19 09:55:36;;;;;;;13.23;7.10;;;;;;;;;;7711026;23;19989;-83
2023/04/19 09:58:36;;;;;;;16.20;7.68;;;;;;;;;;7711168;23;20437;-83
2023/04/19 10:01:46;;;;;;;13.70;6.85;;;;;;;;;;7710378;23;20353;-83
2023/04/19 10:04:47;;;;;;;16.67;9.05;;;;;;;;;;7710865;23;19999;-84
2023/04/19 10:07:48;;;;;;;14.40;6.70;;;;;;;;;;7710826;23;20005;-84
2023/04/19 10:10:53;;;;;;;12.20;6.47;;;;;;;;;;7710666;23;20083;-83
2023/04/19 10:13:55;;;;;;;12.75;7.43;;;;;;;;;;7711212;23;20224;-82
2023/04/19 10:16:56;;;;;;;18.15;9.48;;;;;;;;;;7684548;23;19997;-78
2023/04/19 10:19:58;;;;;;;10.10;6.43;;;;;;;;;;7711429;23;19996;-82
2023/04/19 10:22:59;;;;;;;11.73;7.85;;;;;;;;;;7710374;23;20003;-83
2023/04/19 10:25:59;;;;;;;12.43;7.33;;;;;;;;;;7711729;23;19996;-84
2023/04/19 10:28:59;;;;;;;8.90;6.40;;;;;;;;;;7710517;23;20023;-83
2023/04/19 10:32:02;;;;;;;13.55;8.15;;;;;;;;;;7684540;23;20373;-82
2023/04/19 10:35:07;;;;;;;11.70;7.10;;;;;;;;;;7710004;23;20321;-74
2023/04/19 10:38:08;;;;;;;11.90;7.38;;;;;;;;;;7707587;23;20054;-74
2023/04/19 10:41:13;;;;;;;12.70;8.02;;;;;;;;;;7710474;23;20007;-73
2023/04/19 10:44:13;;;;;;;11.25;6.47;;;;;;;;;;7711359;23;20384;-74
2023/04/19 10:47:33;;;;;;;11.27;6.53;;;;;;;;;;7709499;23;19997;-74
2023/04/19 10:50:52;;;;;;;12.30;7.07;;;;;;;;;;7712362;23;20364;-74
2023/04/19 10:53:56;;;;;;;13.85;7.75;;;;;;;;;;7712787;23;20483;-74
2023/04/19 10:57:00;;;;;;;12.52;7.35;;;;;;;;;;7712450;23;19993;-73
2023/04/19 11:00:17;;;;;;;12.05;7.68;;;;;;;;;;7712321;23;19999;-73
2023/04/19 11:03:37;;;;;;;12.30;6.93;;;;;;;;;;7590716;23;20038;-73
2023/04/19 11:06:55;;;;;;;14.68;8.98;;;;;;;;;;7487855;23;20067;-73
2023/04/19 11:09:55;;;;;;;13.20;7.88;;;;;;;;;;7488738;23;20058;-73
2023/04/19 11:12:56;;;;;;;14.10;8.70;;;;;;;;;;7488368;23;20027;-73
2023/04/19 11:15:57;;;;;;;13.82;7.82;;;;;;;;;;7486918;23;20054;-73
2023/04/19 11:18:57;;;;;;;14.43;8.05;;;;;;;;;;7488012;23;20404;-73
2023/04/19 11:21:58;;;;;;;13.93;8.53;;;;;;;;;;7487973;23;20034;-73
2023/04/19 11:25:10;;;;;;;13.80;9.20;;;;;;;;;;7488394;23;20058;-73
2023/04/19 11:28:10;;;;;;;;;;;;;;;;;;7488747;23;20034;-74
2023/04/19 11:31:11;;;;;;;17.77;10.43;;;;;;;;;;7487618;23;20002;-73
2023/04/19 11:34:11;;;;;;;16.23;10.70;;;;;;;;;;7487739;23;19999;-73
2023/04/19 11:37:11;;;;;;;16.67;10.00;;;;;;;;;;7487079;23;20005;-74
2023/04/19 11:40:18;;;;;;;21.20;12.97;;;;;;;;;;7484943;23;20145;-73
2023/04/19 11:43:18;;;;;;;22.58;13.90;;;;;;;;;;7485715;23;20305;-73
2023/04/19 11:46:20;;;;;;;24.92;15.23;;;;;;;;;;7486384;23;20003;-73
2023/04/19 11:49:26;;;;;;;22.90;12.87;;;;;;;;;;7486681;23;20010;-74
2023/04/19 11:52:27;;;;;;;21.90;14.18;;;;;;;;;;7487452;23;20074;-73
2023/04/19 11:55:31;;;;;;;19.90;11.87;;;;;;;;;;7484874;23;20000;-74
2023/04/19 11:58:40;;;;;;;21.55;13.77;;;;;;;;;;7486611;23;20085;-73
2023/04/19 12:01:40;;;;;;;22.33;14.02;;;;;;;;;;7565562;23;20015;-73
2023/04/19 12:04:40;;;;;;;24.10;15.20;;;;;;;;;;7712466;23;20001;-80
2023/04/19 12:08:16;;;;;;;22.90;15.30;;;;;;;;;;7712456;23;20678;-80
2023/04/19 12:11:23;;;;;;;24.25;14.63;;;;;;;;;;7599604;23;20059;-81
2023/04/19 12:14:25;;;;;;;19.55;14.30;;;;;;;;;;7712002;23;19988;-82
2023/04/19 12:17:25;;;;;;;22.20;13.52;;;;;;;;;;7711751;23;20368;-81
2023/04/19 12:20:32;;;;;;;21.20;13.30;;;;;;;;;;7711982;23;19992;-82
2023/04/19 12:23:32;;;;;;;25.33;14.80;;;;;;;;;;7711852;23;20000;-81
2023/04/19 12:26:33;;;;;;;19.80;11.33;;;;;;;;;;7685200;23;20011;-81
2023/04/19 12:29:33;;;;;;;28.90;16.30;;;;;;;;;;7710383;23;19996;-82
2023/04/19 12:32:33;;;;;;;28.17;15.43;;;;;;;;;;7711228;23;19997;-82
2023/04/19 12:35:37;;;;;;;25.40;17.17;;;;;;;;;;7709679;23;19988;-82
2023/04/19 12:38:37;;;;;;;28.45;19.65;;;;;;;;;;7708969;23;20024;-80
2023/04/19 12:41:37;;;;;;;23.90;16.57;;;;;;;;;;7709355;23;20533;-81
2023/04/19 12:44:38;;;;;;;24.27;15.23;;;;;;;;;;7708894;23;20005;-82
2023/04/19 12:47:38;;;;;;;23.60;15.67;;;;;;;;;;7709094;23;20008;-82
2023/04/19 12:50:39;;;;;;;25.07;16.00;;;;;;;;;;7662101;23;20035;-83
2023/04/19 12:53:40;;;;;;;30.20;17.77;;;;;;;;;;7716144;23;19988;-80
2023/04/19 12:56:40;;;;;;;23.63;15.02;;;;;;;;;;7714235;23;19997;-81
2023/04/19 12:59:40;;;;;;;24.57;15.23;;;;;;;;;;7711491;23;20341;-81
2023/04/19 13:02:41;;;;;;;30.77;18.27;;;;;;;;;;7712604;23;20012;-77
2023/04/19 13:05:41;;;;;;;25.53;16.53;;;;;;;;;;7712051;23;20000;-82
2023/04/19 13:08:41;;;;;;;23.83;14.98;;;;;;;;;;7686686;23;20011;-80
2023/04/19 13:11:41;;;;;;;23.33;15.00;;;;;;;;;;7715054;23;20391;-83
2023/04/19 13:14:45;;;;;;;22.57;14.17;;;;;;;;;;7711976;23;19999;-81
2023/04/19 13:17:45;;;;;;;30.13;16.15;;;;;;;;;;7721817;23;19993;-80
2023/04/19 13:20:45;;;;;;;24.30;15.77;;;;;;;;;;7719969;23;20444;-82
2023/04/19 13:23:45;;;;;;;29.27;18.53;;;;;;;;;;7715741;23;19993;-73
2023/04/19 13:26:47;;;;;;;29.30;20.17;;;;;;;;;;7710435;23;20003;-74
2023/04/19 13:29:47;;;;;;;28.02;18.65;;;;;;;;;;7708790;23;20004;-74
2023/04/19 13:32:47;;;;;;;26.52;17.10;;;;;;;;;;7704337;23;20005;-74
2023/04/19 13:35:47;;;;;;;35.93;24.67;;;;;;;;;;7709961;23;19993;-73
2023/04/19 13:38:48;;;;;;;31.07;20.37;;;;;;;;;;7711141;23;20019;-74
2023/04/19 13:41:48;;;;;;;33.70;23.07;;;;;;;;;;7683371;23;20075;-74
2023/04/19 13:44:48;;;;;;;31.53;19.23;;;;;;;;;;7682859;23;20378;-74
2023/04/19 13:47:49;;;;;;;31.60;21.20;;;;;;;;;;7710308;23;20024;-74
2023/04/19 13:50:51;;;;;;;37.10;22.45;;;;;;;;;;7710235;23;20083;-73
2023/04/19 13:53:52;;;;;;;37.53;23.80;;;;;;;;;;7708894;23;19993;-73
2023/04/19 13:56:52;;;;;;;39.87;22.53;;;;;;;;;;7710567;23;19996;-73
2023/04/19 13:59:52;;;;;;;32.17;19.87;;;;;;;;;;7684565;23;20000;-74
2023/04/19 14:02:53;;;;;;;43.15;23.95;;;;;;;;;;7710160;23;20353;-73
2023/04/19 14:05:55;;;;;;;36.20;23.60;;;;;;;;;;7710751;23;20020;-73
2023/04/19 14:08:55;;;;;;;40.22;23.38;;;;;;;;;;7708244;23;20075;-75
2023/04/19 14:11:55;;;;;;;37.73;24.70;;;;;;;;;;7709793;23;19989;-74
2023/04/19 14:14:56;;;;;;;37.40;23.40;;;;;;;;;;7709878;23;19996;-74
2023/04/19 14:17:56;;;;;;;34.13;20.60;;;;;;;;;;7710781;23;20333;-74
2023/04/19 14:20:56;;;;;;;36.17;22.93;;;;;;;;;;7712693;23;20344;-73
2023/04/19 14:23:57;;;;;;;34.63;22.40;;;;;;;;;;7707015;23;20001;-74
2023/04/19 14:26:57;;;;;;;38.67;23.53;;;;;;;;;;7685434;23;20392;-73
2023/04/19 14:29:57;;;;;;;32.07;22.27;;;;;;;;;;7712924;23;20031;-73
2023/04/19 14:32:57;;;;;;;40.33;24.63;;;;;;;;;;7714598;23;19992;-83
2023/04/19 14:35:58;;;;;;;32.27;20.47;;;;;;;;;;7717453;23;20231;-84
2023/04/19 14:39:01;;;;;;;29.93;20.60;;;;;;;;;;7719377;23;20004;-81
2023/04/19 14:42:02;;;;;;;35.95;20.40;;;;;;;;;;7713923;23;19996;-83
2023/04/19 14:45:02;;;;;;;39.63;25.20;;;;;;;;;;7687756;23;19996;-84
2023/04/19 14:48:02;;;;;;;34.63;23.93;;;;;;;;;;7714172;23;20000;-84
2023/04/19 14:51:03;;;;;;;39.63;23.87;;;;;;;;;;7713880;23;20005;-82
2023/04/19 14:54:03;;;;;;;41.83;25.07;;;;;;;;;;7715232;23;19996;-83
2023/04/19 14:57:03;;;;;;;38.70;24.73;;;;;;;;;;7714471;23;19996;-83
2023/04/19 15:00:04;;;;;;;38.47;23.93;;;;;;;;;;7714688;23;20054;-82
2023/04/19 15:03:04;;;;;;;34.80;21.37;;;;;;;;;;7713640;23;20016;-81
2023/04/19 15:06:06;;;;;;;42.50;22.83;;;;;;;;;;7712779;23;20000;-82
2023/04/19 15:09:06;;;;;;;;;;;;;;;;;;7686850;23;20008;-83
2023/04/19 15:12:06;;;;;;;39.47;23.90;;;;;;;;;;7712882;23;19903;-83
2023/04/19 15:15:07;;;;;;;34.70;23.07;;;;;;;;;;7713860;23;20491;-81
2023/04/19 15:18:07;;;;;;;36.77;25.17;;;;;;;;;;7714229;23;20004;-84
2023/04/19 15:21:10;;;;;;;35.63;23.83;;;;;;;;;;7716017;23;20007;-84
2023/04/19 15:24:10;;;;;;;33.97;23.80;;;;;;;;;;7714249;23;20322;-81
2023/04/19 15:27:11;;;;;;;36.27;21.93;;;;;;;;;;7715627;23;19992;-82
2023/04/19 15:30:11;;;;;;;31.05;21.05;;;;;;;;;;7713664;23;20000;-82
2023/04/19 15:33:11;;;;;;;34.90;21.50;;;;;;;;;;7714389;23;19995;-82
2023/04/19 15:36:11;;;;;;;33.70;20.93;;;;;;;;;;7713006;23;20000;-83
2023/04/19 15:39:12;;;;;;;37.10;23.73;;;;;;;;;;7713405;23;20003;-83
2023/04/19 15:42:12;;;;;;;38.73;24.60;;;;;;;;;;7715886;23;20007;-82
2023/04/19 15:45:12;;;;;;;36.10;22.25;;;;;;;;;;7685631;23;20012;-85
2023/04/19 15:48:12;;;;;;;36.47;23.40;;;;;;;;;;7716569;23;20016;-85
2023/04/19 15:51:14;;;;;;;37.97;23.77;;;;;;;;;;7717470;23;20012;-83
2023/04/19 15:54:14;;;;;;;31.90;22.00;;;;;;;;;;7714961;23;20067;-81
2023/04/19 15:57:16;;;;;;;40.50;25.23;;;;;;;;;;7717720;23;20099;-82
2023/04/19 16:00:17;;;;;;;33.92;23.30;;;;;;;;;;7714276;23;20004;-78
2023/04/19 16:03:20;;;;;;;34.17;22.17;;;;;;;;;;7711303;23;20020;-82
2023/04/19 16:06:21;;;;;;;37.40;23.45;;;;;;;;;;7712099;23;20042;-83
2023/04/19 16:09:22;;;;;;;38.27;23.73;;;;;;;;;;7712113;23;20422;-82
2023/04/19 16:12:22;;;;;;;43.27;24.37;;;;;;;;;;7685886;23;20242;-81
2023/04/19 16:15:23;;;;;;;38.43;24.13;;;;;;;;;;7686601;23;20004;-82
2023/04/19 16:18:23;;;;;;;41.53;22.70;;;;;;;;;;7686433;23;20079;-80
2023/04/19 16:21:25;;;;;;;37.35;21.65;;;;;;;;;;7712850;23;20003;-81
2023/04/19 16:24:25;;;;;;;39.25;22.90;;;;;;;;;;7710548;23;20028;-82
2023/04/19 16:27:26;;;;;;;39.90;23.20;;;;;;;;;;7685470;23;20134;-82
2023/04/19 16:30:26;;;;;;;36.20;21.57;;;;;;;;;;7713565;23;20311;-82
2023/04/19 16:33:26;;;;;;;39.67;25.33;;;;;;;;;;7712159;23;19988;-83
2023/04/19 16:36:28;;;;;;;37.60;23.43;;;;;;;;;;7714950;23;19989;-81
2023/04/19 16:39:28;;;;;;;41.80;27.40;;;;;;;;;;7711134;23;20000;-81
2023/04/19 16:42:28;;;;;;;49.00;27.77;;;;;;;;;;7711622;23;20020;-81
2023/04/19 16:45:29;;;;;;;48.93;29.63;;;;;;;;;;7712988;23;20000;-81
2023/04/19 16:48:29;;;;;;;50.77;29.47;;;;;;;;;;7712231;23;20382;-81
2023/04/19 16:51:29;;;;;;;48.57;30.13;;;;;;;;;;7689051;23;20012;-80
2023/04/19 16:54:31;;;;;;;49.43;28.90;;;;;;;;;;7719567;23;20023;-80
2023/04/19 16:57:32;;;;;;;47.70;28.92;;;;;;;;;;7721298;23;19996;-82
2023/04/19 17:00:32;;;;;;;49.83;28.53;;;;;;;;;;7717577;23;20310;-82
2023/04/19 17:03:33;;;;;;;47.63;31.53;;;;;;;;;;7712332;23;20012;-83
2023/04/19 17:06:33;;;;;;;39.88;25.08;;;;;;;;;;7714071;23;20003;-82
2023/04/19 17:09:34;;;;;;;39.77;24.73;;;;;;;;;;7712920;23;20005;-83
2023/04/19 17:12:35;;;;;;;47.00;27.60;;;;;;;;;;7722427;23;20365;-83
2023/04/19 17:15:36;;;;;;;54.13;32.63;;;;;;;;;;7721230;23;19985;-80
2023/04/19 17:18:37;;;;;;;43.23;25.43;;;;;;;;;;7723043;23;19999;-82
2023/04/19 17:21:38;;;;;;;41.90;25.30;;;;;;;;;;7714637;23;20224;-82
2023/04/19 17:24:38;;;;;;;54.08;28.42;;;;;;;;;;7713832;23;20075;-82
2023/04/19 17:27:38;;;;;;;42.47;23.90;;;;;;;;;;7708975;23;20005;-82
2023/04/19 17:30:39;;;;;;;42.60;23.77;;;;;;;;;;7685708;23;20341;-82
2023/04/19 17:33:39;;;;;;;34.87;22.77;;;;;;;;;;7713074;23;20014;-82
2023/04/19 17:36:41;;;;;;;35.80;22.17;;;;;;;;;;7712236;23;20451;-82
2023/04/19 17:39:43;;;;;;;43.25;23.88;;;;;;;;;;7712139;23;20464;-82